createdAt,value
2022-07-29T00:00:48.555Z,3.33
2022-07-29T00:03:18.889Z,3.13
2022-07-29T00:05:47.080Z,3.47
2022-07-29T00:08:14.305Z,2.97
2022-07-29T00:10:41.484Z,3.13
2022-07-29T00:13:08.984Z,3.30
2022-07-29T00:15:36.277Z,3.38
2022-07-29T00:18:12.360Z,3.17
2022-07-29T00:20:41.588Z,3.33
2022-07-29T00:23:13.660Z,3.50
2022-07-29T00:25:44.309Z,3.70
2022-07-29T00:28:11.443Z,3.67
2022-07-29T00:30:38.675Z,3.40
2022-07-29T00:33:09.114Z,3.40
2022-07-29T00:35:45.420Z,3.58
2022-07-29T00:38:17.167Z,3.60
2022-07-29T00:40:44.974Z,3.60
2022-07-29T00:43:16.809Z,3.88
2022-07-29T00:45:44.348Z,3.30
2022-07-29T00:48:15.929Z,3.85
2022-07-29T00:50:43.508Z,3.75
2022-07-29T00:53:15.247Z,4.03
2022-07-29T00:55:42.588Z,3.83
2022-07-29T00:58:12.970Z,3.83
2022-07-29T01:00:41.887Z,3.85
2022-07-29T01:03:10.940Z,3.63
2022-07-29T01:05:48.217Z,4.75
2022-07-29T01:08:22.390Z,3.60
2022-07-29T01:10:50.438Z,3.80
2022-07-29T01:13:21.977Z,3.58
2022-07-29T01:16:16.408Z,3.50
2022-07-29T01:18:49.587Z,3.50
2022-07-29T01:21:52.138Z,3.30
2022-07-29T01:24:47.227Z,3.72
2022-07-29T01:27:33.318Z,4.03
2022-07-29T01:30:05.183Z,3.50
2022-07-29T01:32:38.238Z,3.75
2022-07-29T01:35:17.970Z,3.80
2022-07-29T01:38:01.992Z,4.00
2022-07-29T01:40:38.857Z,3.80
2022-07-29T01:43:12.558Z,3.88
2022-07-29T01:45:54.457Z,3.97
2022-07-29T01:48:24.778Z,3.78
2022-07-29T01:51:08.133Z,3.97
2022-07-29T01:53:48.947Z,3.67
2022-07-29T01:56:21.331Z,3.67
2022-07-29T01:58:52.901Z,3.72
2022-07-29T02:01:22.678Z,4.00
2022-07-29T02:03:59.217Z,3.50
2022-07-29T02:06:29.103Z,4.20
2022-07-29T02:09:00.188Z,4.13
2022-07-29T02:11:29.788Z,4.00
2022-07-29T02:13:59.307Z,4.03
2022-07-29T02:16:30.181Z,3.70
2022-07-29T02:18:59.249Z,3.90
2022-07-29T02:21:30.878Z,3.90
2022-07-29T02:24:04.308Z,3.65
2022-07-29T02:26:35.032Z,3.95
2022-07-29T02:29:03.477Z,4.22
2022-07-29T02:31:36.706Z,3.78
2022-07-29T02:34:09.509Z,4.00
2022-07-29T02:36:38.469Z,3.72
2022-07-29T02:39:10.837Z,3.75
2022-07-29T02:41:48.698Z,3.75
2022-07-29T02:44:20.834Z,4.15
2022-07-29T02:46:53.131Z,4.18
2022-07-29T02:49:50.087Z,4.18
2022-07-29T02:52:36.533Z,3.70
2022-07-29T02:55:14.468Z,3.70
2022-07-29T02:57:54.819Z,3.42
2022-07-29T03:00:28.106Z,3.42
2022-07-29T03:02:59.747Z,3.47
2022-07-29T03:05:28.128Z,3.65
2022-07-29T03:08:07.367Z,3.65
2022-07-29T03:10:35.247Z,3.40
2022-07-29T03:13:06.286Z,3.55
2022-07-29T03:15:34.348Z,3.90
2022-07-29T03:18:01.783Z,3.42
2022-07-29T03:20:31.627Z,3.70
2022-07-29T03:22:58.859Z,3.45
2022-07-29T03:25:26.242Z,3.90
2022-07-29T03:27:55.918Z,3.83
2022-07-29T03:30:23.507Z,3.50
2022-07-29T03:32:55.152Z,3.45
2022-07-29T03:35:23.878Z,3.42
2022-07-29T03:37:53.287Z,3.50
2022-07-29T03:40:44.238Z,3.60
2022-07-29T03:43:14.327Z,3.20
2022-07-29T03:45:49.297Z,3.33
2022-07-29T03:48:26.217Z,3.72
2022-07-29T03:50:53.867Z,3.60
2022-07-29T03:53:21.318Z,3.70
2022-07-29T03:55:57.548Z,3.90
2022-07-29T03:58:27.553Z,3.78
2022-07-29T04:00:58.776Z,3.25
2022-07-29T04:03:26.160Z,3.35
2022-07-29T04:06:06.731Z,3.10
2022-07-29T04:08:35.417Z,3.53
2022-07-29T04:11:03.547Z,3.60
2022-07-29T04:13:31.858Z,3.70
2022-07-29T04:16:03.960Z,3.28
2022-07-29T04:18:32.177Z,3.40
2022-07-29T04:21:01.935Z,3.80
2022-07-29T04:23:34.563Z,3.80
2022-07-29T04:26:05.408Z,3.67
2022-07-29T04:28:33.656Z,3.85
2022-07-29T04:31:00.886Z,3.80
2022-07-29T04:33:28.152Z,3.75
2022-07-29T04:35:57.537Z,3.95
2022-07-29T04:38:24.757Z,3.42
2022-07-29T04:40:54.002Z,4.28
2022-07-29T04:43:22.570Z,3.90
2022-07-29T04:45:50.950Z,4.00
2022-07-29T04:48:18.226Z,4.13
2022-07-29T04:50:45.546Z,3.78
2022-07-29T04:53:12.606Z,3.92
2022-07-29T04:55:39.798Z,4.07
2022-07-29T04:58:07.049Z,4.00
2022-07-29T05:00:34.331Z,3.88
2022-07-29T05:03:04.290Z,4.10
2022-07-29T05:05:36.117Z,4.07
2022-07-29T05:08:03.443Z,4.32
2022-07-29T05:10:35.162Z,4.00
2022-07-29T05:13:02.337Z,4.78
2022-07-29T05:15:29.497Z,4.60
2022-07-29T05:17:56.656Z,5.03
2022-07-29T05:20:27.741Z,4.80
2022-07-29T05:23:00.477Z,4.00
2022-07-29T05:25:43.282Z,4.15
2022-07-29T05:28:14.586Z,4.22
2022-07-29T05:30:41.940Z,4.10
2022-07-29T05:33:09.265Z,3.97
2022-07-29T05:36:00.916Z,3.70
2022-07-29T05:38:28.450Z,3.60
2022-07-29T05:40:59.182Z,3.60
2022-07-29T05:43:26.907Z,3.97
2022-07-29T05:45:54.148Z,3.53
2022-07-29T05:48:23.598Z,3.90
2022-07-29T05:50:52.477Z,3.42
2022-07-29T05:53:20.704Z,3.50
2022-07-29T05:55:49.617Z,3.80
2022-07-29T05:58:22.787Z,3.50
2022-07-29T06:00:50.095Z,3.50
2022-07-29T06:03:17.491Z,3.10
2022-07-29T06:05:46.856Z,3.47
2022-07-29T06:08:17.326Z,3.38
2022-07-29T06:10:44.741Z,3.25
2022-07-29T06:13:12.027Z,4.00
2022-07-29T06:15:39.670Z,3.78
2022-07-29T06:18:10.496Z,3.63
2022-07-29T06:20:41.004Z,3.45
2022-07-29T06:23:08.186Z,3.42
2022-07-29T06:25:39.447Z,3.88
2022-07-29T06:28:17.378Z,3.83
2022-07-29T06:30:45.892Z,3.60
2022-07-29T06:33:18.966Z,4.38
2022-07-29T06:35:52.431Z,4.07
2022-07-29T06:38:30.347Z,3.58
2022-07-29T06:41:03.051Z,3.17
2022-07-29T06:43:52.305Z,3.30
2022-07-29T06:46:25.563Z,3.60
2022-07-29T06:48:56.029Z,3.85
2022-07-29T06:51:26.638Z,3.92
2022-07-29T06:53:59.500Z,3.08
2022-07-29T06:56:39.124Z,3.75
2022-07-29T06:59:33.442Z,3.10
2022-07-29T07:02:06.446Z,3.25
2022-07-29T07:04:36.127Z,3.47
2022-07-29T07:07:07.619Z,4.70
2022-07-29T07:09:40.494Z,4.43
2022-07-29T07:12:18.835Z,2.97
2022-07-29T07:14:47.946Z,3.13
2022-07-29T07:17:18.059Z,3.90
2022-07-29T07:19:46.319Z,3.40
2022-07-29T07:22:33.475Z,3.35
2022-07-29T07:25:05.733Z,3.33
2022-07-29T07:27:38.426Z,3.80
2022-07-29T07:36:14.175Z,3.80
2022-07-29T07:38:45.666Z,3.40
2022-07-29T07:41:14.144Z,3.70
2022-07-29T07:43:47.906Z,3.47
2022-07-29T07:46:23.122Z,3.70
2022-07-29T07:51:28.987Z,3.70
2022-07-29T07:54:14.816Z,3.70
2022-07-29T07:56:44.535Z,3.92
2022-07-29T07:59:11.867Z,3.38
2022-07-29T08:01:48.039Z,3.55
2022-07-29T08:04:27.429Z,3.92
2022-07-29T08:06:58.006Z,4.10
2022-07-29T08:09:33.405Z,3.65
2022-07-29T08:12:07.157Z,4.10
2022-07-29T08:14:39.346Z,4.28
2022-07-29T08:17:09.115Z,4.07
2022-07-29T08:19:37.746Z,4.68
2022-07-29T08:22:05.005Z,4.63
2022-07-29T08:25:09.837Z,4.57
2022-07-29T08:27:44.106Z,4.95
2022-07-29T08:30:12.705Z,4.57
2022-07-29T08:32:57.630Z,4.38
2022-07-29T08:35:26.946Z,4.65
2022-07-29T08:38:00.912Z,4.82
2022-07-29T08:40:32.763Z,4.72
2022-07-29T08:43:06.563Z,5.45
2022-07-29T08:45:47.309Z,4.55
2022-07-29T08:48:22.991Z,4.82
2022-07-29T08:50:58.514Z,4.53
2022-07-29T08:53:30.311Z,4.20
2022-07-29T08:55:58.183Z,4.82
2022-07-29T08:58:26.059Z,4.55
2022-07-29T09:00:58.415Z,4.50
2022-07-29T09:03:30.599Z,5.03
2022-07-29T09:05:59.844Z,4.50
2022-07-29T09:08:30.849Z,10.30
2022-07-29T09:11:03.914Z,4.57
2022-07-29T09:13:32.583Z,4.07
2022-07-29T09:15:59.887Z,4.40
2022-07-29T09:18:44.696Z,4.50
2022-07-29T09:21:35.826Z,4.32
2022-07-29T09:24:14.268Z,4.72
2022-07-29T09:26:46.768Z,4.78
2022-07-29T09:29:23.666Z,4.32
2022-07-29T09:31:56.990Z,5.18
2022-07-29T09:34:32.899Z,4.93
2022-07-29T19:32:55.853Z,6.93
2022-07-29T19:35:34.279Z,7.45
2022-07-29T19:41:24.126Z,6.70
2022-07-29T19:43:53.103Z,5.47
2022-07-29T19:46:31.559Z,6.20
2022-07-29T19:49:00.229Z,7.30
2022-07-29T19:51:28.869Z,7.88
2022-07-29T20:01:13.161Z,7.65
2022-07-29T20:03:52.307Z,8.10
2022-07-29T20:06:25.406Z,7.78
2022-07-29T20:09:46.438Z,7.82
2022-07-29T20:15:19.097Z,7.55
2022-07-29T20:18:50.236Z,8.20
2022-07-29T20:21:28.456Z,7.88
2022-07-29T20:24:06.868Z,8.18
2022-07-29T20:26:34.417Z,7.95
2022-07-29T20:29:05.410Z,8.18
2022-07-29T20:34:17.342Z,8.02
2022-07-29T20:36:50.638Z,8.38
2022-07-29T20:39:22.988Z,8.57
2022-07-29T20:41:57.358Z,8.15
2022-07-29T20:44:28.779Z,8.00
2022-07-29T20:47:05.168Z,7.82
2022-07-29T20:49:34.762Z,7.97
2022-07-29T20:52:50.134Z,8.13
2022-07-29T20:55:27.688Z,8.30
2022-07-29T20:57:59.308Z,8.35
2022-07-29T21:00:28.978Z,8.40
2022-07-29T21:02:58.163Z,8.40
2022-07-29T21:05:25.767Z,8.68
2022-07-29T21:07:58.195Z,9.10
2022-07-29T21:10:27.068Z,8.48
2022-07-29T21:12:59.802Z,7.60
2022-07-29T21:15:31.612Z,6.00
2022-07-29T21:18:04.132Z,5.63
2022-07-29T21:20:44.578Z,5.38
2022-07-29T21:23:18.327Z,4.75
2022-07-29T21:25:49.477Z,4.35
2022-07-29T21:28:28.167Z,4.80
2022-07-29T22:04:07.250Z,4.60
2022-07-29T22:06:38.712Z,5.80
2022-07-29T22:09:12.963Z,4.95
2022-07-29T22:11:40.308Z,5.18
2022-07-29T22:14:10.377Z,5.40
2022-07-29T22:16:38.849Z,5.00
2022-07-29T22:19:08.089Z,4.75
2022-07-29T22:21:41.720Z,4.88
2022-07-29T22:24:11.900Z,5.00
2022-07-29T22:26:42.208Z,5.00
2022-07-29T22:29:13.527Z,5.10
2022-07-29T23:05:04.596Z,5.38
2022-07-29T23:07:38.521Z,4.95
2022-07-29T23:10:21.463Z,4.55
2022-07-29T23:12:54.879Z,5.20
2022-07-29T23:15:22.113Z,4.97
2022-07-29T23:17:59.249Z,5.60
2022-07-29T23:20:30.058Z,5.35
2022-07-29T23:22:57.378Z,5.40
2022-07-29T23:25:28.048Z,4.75
2022-07-29T23:27:57.902Z,4.68
2022-07-29T23:54:38.566Z,5.05
2022-07-29T23:57:07.116Z,5.50
2022-07-29T23:59:36.466Z,5.03
